sensor_id;sensor_type;location;lat;lon;timestamp;pressure;altitude;pressure_sealevel;temperature;humidity
28008;BME280;15333;50.010;20.020;2023-02-13T00:02:25;100802.28;;;1.99;100.00
28008;BME280;15333;50.010;20.020;2023-02-13T00:05:26;100809.44;;;1.83;100.00
28008;BME280;15333;50.010;20.020;2023-02-13T00:08:27;100805.09;;;1.77;100.00
28008;BME280;15333;50.010;20.020;2023-02-13T00:11:28;100799.72;;;1.86;100.00
28008;BME280;15333;50.010;20.020;2023-02-13T00:14:29;100794.59;;;1.68;100.00
28008;BME280;15333;50.010;20.020;2023-02-13T00:17:31;100791.97;;;1.68;100.00
28008;BME280;15333;50.010;20.020;2023-02-13T00:20:31;100785.75;;;1.75;100.00
28008;BME280;15333;50.010;20.020;2023-02-13T00:23:33;100791.03;;;1.72;100.00
28008;BME280;15333;50.010;20.020;2023-02-13T00:26:34;100784.88;;;1.75;100.00
28008;BME280;15333;50.010;20.020;2023-02-13T00:29:35;100790.31;;;1.53;100.00
28008;BME280;15333;50.010;20.020;2023-02-13T00:32:36;100789.47;;;1.44;100.00
28008;BME280;15333;50.010;20.020;2023-02-13T00:35:37;100794.66;;;1.59;100.00
28008;BME280;15333;50.010;20.020;2023-02-13T00:38:40;100786.69;;;1.68;100.00
28008;BME280;15333;50.010;20.020;2023-02-13T00:41:41;100787.50;;;1.76;100.00
28008;BME280;15333;50.010;20.020;2023-02-13T00:44:42;100778.78;;;1.68;100.00
28008;BME280;15333;50.010;20.020;2023-02-13T00:47:44;100768.00;;;1.92;100.00
28008;BME280;15333;50.010;20.020;2023-02-13T00:50:46;100777.72;;;1.89;100.00
28008;BME280;15333;50.010;20.020;2023-02-13T00:53:47;100767.91;;;2.02;100.00
28008;BME280;15333;50.010;20.020;2023-02-13T00:56:49;100759.16;;;1.96;100.00
28008;BME280;15333;50.010;20.020;2023-02-13T00:59:50;100764.38;;;2.04;100.00
28008;BME280;15333;50.010;20.020;2023-02-13T01:02:51;100759.03;;;2.09;100.00
28008;BME280;15333;50.010;20.020;2023-02-13T01:05:52;100764.25;;;2.15;100.00
28008;BME280;15333;50.010;20.020;2023-02-13T01:08:53;100746.63;;;2.20;100.00
28008;BME280;15333;50.010;20.020;2023-02-13T01:11:54;100736.00;;;2.23;100.00
28008;BME280;15333;50.010;20.020;2023-02-13T01:14:55;100725.53;;;2.14;100.00
28008;BME280;15333;50.010;20.020;2023-02-13T01:17:56;100738.69;;;2.20;100.00
28008;BME280;15333;50.010;20.020;2023-02-13T01:21:03;100729.66;;;2.39;100.00
28008;BME280;15333;50.010;20.020;2023-02-13T01:24:05;100728.78;;;2.40;100.00
28008;BME280;15333;50.010;20.020;2023-02-13T01:27:06;100729.53;;;2.51;100.00
28008;BME280;15333;50.010;20.020;2023-02-13T01:30:11;100732.25;;;2.42;100.00
28008;BME280;15333;50.010;20.020;2023-02-13T01:33:13;100727.84;;;2.43;100.00
28008;BME280;15333;50.010;20.020;2023-02-13T01:36:14;100727.25;;;2.18;100.00
28008;BME280;15333;50.010;20.020;2023-02-13T01:39:15;100722.00;;;2.15;100.00
28008;BME280;15333;50.010;20.020;2023-02-13T01:42:25;100712.31;;;2.14;100.00
28008;BME280;15333;50.010;20.020;2023-02-13T01:45:29;100708.94;;;2.01;100.00
28008;BME280;15333;50.010;20.020;2023-02-13T01:48:30;100714.22;;;2.01;100.00
28008;BME280;15333;50.010;20.020;2023-02-13T01:51:34;100707.31;;;1.91;100.00
28008;BME280;15333;50.010;20.020;2023-02-13T01:54:36;100709.13;;;1.83;100.00
28008;BME280;15333;50.010;20.020;2023-02-13T01:57:39;100701.22;;;1.80;100.00
28008;BME280;15333;50.010;20.020;2023-02-13T02:00:42;100699.34;;;1.92;100.00
28008;BME280;15333;50.010;20.020;2023-02-13T02:03:56;100694.94;;;1.94;100.00
28008;BME280;15333;50.010;20.020;2023-02-13T02:07:05;100684.28;;;2.04;100.00
28008;BME280;15333;50.010;20.020;2023-02-13T02:10:12;100683.41;;;2.05;100.00
28008;BME280;15333;50.010;20.020;2023-02-13T02:13:17;100686.13;;;1.94;100.00
28008;BME280;15333;50.010;20.020;2023-02-13T02:16:18;100681.72;;;1.94;100.00
28008;BME280;15333;50.010;20.020;2023-02-13T02:36:57;100688.91;;;1.83;100.00
28008;BME280;15333;50.010;20.020;2023-02-13T02:40:23;100690.53;;;1.93;100.00
28008;BME280;15333;50.010;20.020;2023-02-13T02:53:38;100688.91;;;1.80;100.00
28008;BME280;15333;50.010;20.020;2023-02-13T02:56:42;100691.63;;;1.74;100.00
28008;BME280;15333;50.010;20.020;2023-02-13T02:59:45;100694.13;;;1.89;100.00
28008;BME280;15333;50.010;20.020;2023-02-13T03:03:22;100706.69;;;1.60;100.00
28008;BME280;15333;50.010;20.020;2023-02-13T03:06:51;100692.56;;;1.64;100.00
28008;BME280;15333;50.010;20.020;2023-02-13T03:10:00;100690.78;;;1.69;100.00
28008;BME280;15333;50.010;20.020;2023-02-13T03:13:40;100695.97;;;1.78;100.00
28008;BME280;15333;50.010;20.020;2023-02-13T03:16:41;100686.19;;;1.88;100.00
28008;BME280;15333;50.010;20.020;2023-02-13T03:21:07;100681.78;;;1.91;100.00
28008;BME280;15333;50.010;20.020;2023-02-13T03:24:05;100692.44;;;1.79;100.00
28008;BME280;15333;50.010;20.020;2023-02-13T03:27:13;100693.16;;;1.96;100.00
28008;BME280;15333;50.010;20.020;2023-02-13T03:30:40;100690.59;;;1.90;100.00
28008;BME280;15333;50.010;20.020;2023-02-13T03:33:59;100690.53;;;1.96;100.00
28008;BME280;15333;50.010;20.020;2023-02-13T03:37:05;100698.50;;;1.89;100.00
28008;BME280;15333;50.010;20.020;2023-02-13T03:41:17;100698.44;;;1.95;100.00
28008;BME280;15333;50.010;20.020;2023-02-13T03:47:29;100703.72;;;1.96;100.00
28008;BME280;15333;50.010;20.020;2023-02-13T03:50:29;100703.72;;;1.95;100.00
28008;BME280;15333;50.010;20.020;2023-02-13T03:53:33;100700.22;;;1.94;100.00
28008;BME280;15333;50.010;20.020;2023-02-13T03:56:38;100702.84;;;1.98;100.00
28008;BME280;15333;50.010;20.020;2023-02-13T04:00:00;100708.06;;;2.01;100.00
28008;BME280;15333;50.010;20.020;2023-02-13T04:03:12;100695.72;;;2.03;100.00
28008;BME280;15333;50.010;20.020;2023-02-13T04:06:29;100707.25;;;1.95;100.00
28008;BME280;15333;50.010;20.020;2023-02-13T04:09:34;100706.38;;;1.96;100.00
28008;BME280;15333;50.010;20.020;2023-02-13T04:16:02;100704.69;;;1.86;100.00
28008;BME280;15333;50.010;20.020;2023-02-13T04:19:07;100706.50;;;1.84;100.00
28008;BME280;15333;50.010;20.020;2023-02-13T04:22:11;100703.88;;;1.78;100.00
28008;BME280;15333;50.010;20.020;2023-02-13T04:25:14;100704.00;;;1.68;100.00
28008;BME280;15333;50.010;20.020;2023-02-13T04:28:16;100700.53;;;1.60;100.00
28008;BME280;15333;50.010;20.020;2023-02-13T04:31:17;100703.19;;;1.58;100.00
28008;BME280;15333;50.010;20.020;2023-02-13T04:34:18;100713.72;;;1.61;100.00
28008;BME280;15333;50.010;20.020;2023-02-13T04:37:19;100696.19;;;1.54;100.00
28008;BME280;15333;50.010;20.020;2023-02-13T04:40:20;100707.59;;;1.57;100.00
28008;BME280;15333;50.010;20.020;2023-02-13T04:43:21;100704.13;;;1.52;100.00
28008;BME280;15333;50.010;20.020;2023-02-13T04:46:22;100692.69;;;1.55;100.00
28008;BME280;15333;50.010;20.020;2023-02-13T04:49:23;100701.41;;;1.63;100.00
28008;BME280;15333;50.010;20.020;2023-02-13T04:52:24;100699.66;;;1.62;100.00
28008;BME280;15333;50.010;20.020;2023-02-13T04:55:27;100697.91;;;1.61;100.00
28008;BME280;15333;50.010;20.020;2023-02-13T04:58:28;100697.84;;;1.67;100.00
28008;BME280;15333;50.010;20.020;2023-02-13T05:01:30;100701.34;;;1.69;100.00
28008;BME280;15333;50.010;20.020;2023-02-13T05:04:30;100701.28;;;1.75;100.00
28008;BME280;15333;50.010;20.020;2023-02-13T05:07:31;100697.66;;;1.85;100.00
28008;BME280;15333;50.010;20.020;2023-02-13T05:10:33;100701.22;;;1.81;100.00
28008;BME280;15333;50.010;20.020;2023-02-13T05:13:34;100704.75;;;1.83;100.00
28008;BME280;15333;50.010;20.020;2023-02-13T05:16:35;100690.59;;;1.90;100.00
28008;BME280;15333;50.010;20.020;2023-02-13T05:19:36;100701.16;;;1.90;100.00
28008;BME280;15333;50.010;20.020;2023-02-13T05:22:43;100704.66;;;1.89;100.00
28008;BME280;15333;50.010;20.020;2023-02-13T05:26:02;100704.69;;;1.86;100.00
28008;BME280;15333;50.010;20.020;2023-02-13T05:29:03;100705.56;;;1.90;100.00
28008;BME280;15333;50.010;20.020;2023-02-13T05:32:19;100699.31;;;1.95;100.00
28008;BME280;15333;50.010;20.020;2023-02-13T05:35:21;100701.16;;;1.90;100.00
28008;BME280;15333;50.010;20.020;2023-02-13T05:38:23;100692.28;;;1.94;100.00
28008;BME280;15333;50.010;20.020;2023-02-13T05:41:24;100692.22;;;2.04;100.00
28008;BME280;15333;50.010;20.020;2023-02-13T05:44:25;100695.72;;;2.03;100.00
28008;BME280;15333;50.010;20.020;2023-02-13T05:47:26;100699.25;;;2.05;100.00
28008;BME280;15333;50.010;20.020;2023-02-13T05:50:27;100706.28;;;2.06;100.00
28008;BME280;15333;50.010;20.020;2023-02-13T05:53:29;100713.28;;;2.07;100.00
28008;BME280;15333;50.010;20.020;2023-02-13T05:56:30;100715.91;;;2.08;100.00
28008;BME280;15333;50.010;20.020;2023-02-13T05:59:31;100724.72;;;2.09;100.00
28008;BME280;15333;50.010;20.020;2023-02-13T06:02:32;100718.63;;;2.04;100.00
28008;BME280;15333;50.010;20.020;2023-02-13T06:05:33;100721.25;;;2.04;100.00
28008;BME280;15333;50.010;20.020;2023-02-13T06:08:34;100720.31;;;2.11;100.00
28008;BME280;15333;50.010;20.020;2023-02-13T06:11:35;100714.97;;;2.14;100.00
28008;BME280;15333;50.010;20.020;2023-02-13T06:14:36;100719.34;;;2.16;100.00
28008;BME280;15333;50.010;20.020;2023-02-13T06:17:37;100714.06;;;2.16;100.00
28008;BME280;15333;50.010;20.020;2023-02-13T06:20:38;100709.69;;;2.14;100.00
28008;BME280;15333;50.010;20.020;2023-02-13T06:23:39;100712.31;;;2.14;100.00
28008;BME280;15333;50.010;20.020;2023-02-13T06:26:40;100710.53;;;2.19;100.00
28008;BME280;15333;50.010;20.020;2023-02-13T06:29:40;100716.69;;;2.18;100.00
28008;BME280;15333;50.010;20.020;2023-02-13T06:32:42;100719.28;;;2.24;100.00
28008;BME280;15333;50.010;20.020;2023-02-13T06:35:43;100719.34;;;2.19;100.00
28008;BME280;15333;50.010;20.020;2023-02-13T06:38:44;100726.34;;;2.20;100.00
28008;BME280;15333;50.010;20.020;2023-02-13T06:41:45;100726.31;;;2.26;100.00
28008;BME280;15333;50.010;20.020;2023-02-13T06:44:46;100732.38;;;2.33;100.00
28008;BME280;15333;50.010;20.020;2023-02-13T06:47:47;100747.44;;;2.26;100.00
28008;BME280;15333;50.010;20.020;2023-02-13T06:50:48;100748.31;;;2.27;100.00
28008;BME280;15333;50.010;20.020;2023-02-13T06:53:51;100746.50;;;2.29;100.00
28008;BME280;15333;50.010;20.020;2023-02-13T06:56:52;100749.13;;;2.33;100.00
28008;BME280;15333;50.010;20.020;2023-02-13T06:59:53;100741.13;;;2.38;100.00
28008;BME280;15333;50.010;20.020;2023-02-13T07:03:00;100749.06;;;2.35;100.00
28008;BME280;15333;50.010;20.020;2023-02-13T07:06:01;100749.88;;;2.43;100.00
28008;BME280;15333;50.010;20.020;2023-02-13T07:09:03;100749.84;;;2.46;100.00
28008;BME280;15333;50.010;20.020;2023-02-13T07:12:04;100746.16;;;2.59;100.00
28008;BME280;15333;50.010;20.020;2023-02-13T07:15:06;100742.56;;;2.66;100.00
28008;BME280;15333;50.010;20.020;2023-02-13T07:18:08;100742.53;;;2.69;100.00
28008;BME280;15333;50.010;20.020;2023-02-13T07:21:09;100740.53;;;2.87;100.00
28008;BME280;15333;50.010;20.020;2023-02-13T07:24:09;100741.34;;;2.92;100.00
28008;BME280;15333;50.010;20.020;2023-02-13T07:27:10;100743.91;;;2.98;100.00
28008;BME280;15333;50.010;20.020;2023-02-13T07:30:11;100742.09;;;3.03;100.00
28008;BME280;15333;50.010;20.020;2023-02-13T07:33:12;100740.31;;;3.05;100.00
28008;BME280;15333;50.010;20.020;2023-02-13T07:36:13;100732.47;;;2.96;100.00
28008;BME280;15333;50.010;20.020;2023-02-13T07:39:14;100731.59;;;2.97;100.00
28008;BME280;15333;50.010;20.020;2023-02-13T07:42:15;100726.22;;;3.03;100.00
28008;BME280;15333;50.010;20.020;2023-02-13T07:45:16;100718.25;;;3.04;100.00
28008;BME280;15333;50.010;20.020;2023-02-13T07:48:17;100730.53;;;3.10;100.00
28008;BME280;15333;50.010;20.020;2023-02-13T07:51:18;100731.59;;;2.97;100.00
28008;BME280;15333;50.010;20.020;2023-02-13T07:54:19;100731.38;;;3.12;100.00
28008;BME280;15333;50.010;20.020;2023-02-13T07:57:20;100725.94;;;3.21;100.00
28008;BME280;15333;50.010;20.020;2023-02-13T08:00:21;100731.00;;;3.36;100.00
28008;BME280;15333;50.010;20.020;2023-02-13T08:03:23;100725.84;;;3.27;100.00
28008;BME280;15333;50.010;20.020;2023-02-13T08:06:23;100724.06;;;3.29;100.00
28008;BME280;15333;50.010;20.020;2023-02-13T08:09:25;100722.16;;;3.37;100.00
28008;BME280;15333;50.010;20.020;2023-02-13T08:12:44;100717.75;;;3.38;100.00
28008;BME280;15333;50.010;20.020;2023-02-13T08:15:46;100714.25;;;3.34;100.00
28008;BME280;15333;50.010;20.020;2023-02-13T08:18:46;100725.59;;;3.44;100.00
28008;BME280;15333;50.010;20.020;2023-02-13T08:21:47;100721.97;;;3.49;100.00
28008;BME280;15333;50.010;20.020;2023-02-13T08:24:48;100736.16;;;3.45;100.00
28008;BME280;15333;50.010;20.020;2023-02-13T08:27:49;100724.72;;;3.42;100.00
28008;BME280;15333;50.010;20.020;2023-02-13T08:30:50;100719.31;;;3.51;100.00
28008;BME280;15333;50.010;20.020;2023-02-13T08:33:51;100718.38;;;3.53;100.00
28008;BME280;15333;50.010;20.020;2023-02-13T08:36:52;100716.44;;;3.65;100.00
28008;BME280;15333;50.010;20.020;2023-02-13T08:39:53;100714.50;;;3.76;100.00
28008;BME280;15333;50.010;20.020;2023-02-13T08:43:01;100704.66;;;3.82;100.00
28008;BME280;15333;50.010;20.020;2023-02-13T08:46:02;100715.94;;;3.93;100.00
28008;BME280;15333;50.010;20.020;2023-02-13T08:49:03;100703.53;;;3.97;100.00
28008;BME280;15333;50.010;20.020;2023-02-13T08:52:04;100715.34;;;4.25;100.00
28008;BME280;15333;50.010;20.020;2023-02-13T08:55:05;100710.22;;;4.16;100.00
28008;BME280;15333;50.010;20.020;2023-02-13T08:58:06;100704.97;;;4.13;100.00
28008;BME280;15333;50.010;20.020;2023-02-13T09:01:07;100704.63;;;4.31;100.00
28008;BME280;15333;50.010;20.020;2023-02-13T09:04:09;100695.44;;;4.48;100.00
28008;BME280;15333;50.010;20.020;2023-02-13T09:07:10;100698.78;;;4.57;100.00
28008;BME280;15333;50.010;20.020;2023-02-13T09:10:11;100702.13;;;4.67;100.00
28008;BME280;15333;50.010;20.020;2023-02-13T09:13:11;100698.19;;;4.86;100.00
28008;BME280;15333;50.010;20.020;2023-02-13T09:16:12;100709.94;;;4.75;100.00
28008;BME280;15333;50.010;20.020;2023-02-13T09:19:13;100695.16;;;5.03;100.00
28008;BME280;15333;50.010;20.020;2023-02-13T09:22:14;100694.63;;;4.87;100.00
28008;BME280;15333;50.010;20.020;2023-02-13T09:25:16;100702.56;;;4.89;100.00
28008;BME280;15333;50.010;20.020;2023-02-13T09:28:20;100698.63;;;5.05;100.00
28008;BME280;15333;50.010;20.020;2023-02-13T09:31:20;100699.19;;;4.81;100.00
28008;BME280;15333;50.010;20.020;2023-02-13T09:34:23;100688.41;;;4.88;100.00
28008;BME280;15333;50.010;20.020;2023-02-13T09:37:24;100693.50;;;4.97;100.00
28008;BME280;15333;50.010;20.020;2023-02-13T09:40:32;100706.66;;;5.03;100.00
28008;BME280;15333;50.010;20.020;2023-02-13T09:43:54;100702.66;;;5.23;100.00
28008;BME280;15333;50.010;20.020;2023-02-13T09:47:06;100699.84;;;5.29;100.00
28008;BME280;15333;50.010;20.020;2023-02-13T09:50:18;100690.63;;;5.45;100.00
28008;BME280;15333;50.010;20.020;2023-02-13T09:53:23;100702.69;;;5.58;100.00
28008;BME280;15333;50.010;20.020;2023-02-13T10:03:28;100690.63;;;5.80;100.00
28008;BME280;15333;50.010;20.020;2023-02-13T10:06:33;100693.66;;;5.65;100.00
28008;BME280;15333;50.010;20.020;2023-02-13T10:19:43;100666.13;;;6.34;96.77
28008;BME280;15333;50.010;20.020;2023-02-13T10:22:55;100657.72;;;6.79;94.35
28008;BME280;15333;50.010;20.020;2023-02-13T10:26:19;100658.03;;;6.39;93.33
28008;BME280;15333;50.010;20.020;2023-02-13T10:29:24;100657.50;;;6.26;94.44
28008;BME280;15333;50.010;20.020;2023-02-13T10:33:25;100655.78;;;6.25;95.14
28008;BME280;15333;50.010;20.020;2023-02-13T10:36:30;100645.72;;;6.65;93.16
28008;BME280;15333;50.010;20.020;2023-02-13T10:39:33;100643.91;;;6.37;92.72
28008;BME280;15333;50.010;20.020;2023-02-13T10:42:44;100631.38;;;6.11;94.51
28008;BME280;15333;50.010;20.020;2023-02-13T10:46:28;100635.75;;;6.12;95.74
28008;BME280;15333;50.010;20.020;2023-02-13T10:49:22;100630.13;;;6.22;95.31
28008;BME280;15333;50.010;20.020;2023-02-13T10:52:43;100634.59;;;6.22;93.93
28008;BME280;15333;50.010;20.020;2023-02-13T10:59:30;100622.69;;;6.64;92.52
28008;BME280;15333;50.010;20.020;2023-02-13T11:02:33;100617.28;;;6.38;92.83
28008;BME280;15333;50.010;20.020;2023-02-13T11:05:38;100617.69;;;6.54;92.77
28008;BME280;15333;50.010;20.020;2023-02-13T11:08:41;100615.44;;;6.69;92.95
28008;BME280;15333;50.010;20.020;2023-02-13T11:11:43;100617.53;;;6.60;92.93
28008;BME280;15333;50.010;20.020;2023-02-13T11:14:59;100614.25;;;6.50;94.16
28008;BME280;15333;50.010;20.020;2023-02-13T11:18:13;100611.66;;;6.47;95.29
28008;BME280;15333;50.010;20.020;2023-02-13T11:21:22;100611.31;;;5.99;96.64
28008;BME280;15333;50.010;20.020;2023-02-13T11:24:34;100615.38;;;5.78;97.42
28008;BME280;15333;50.010;20.020;2023-02-13T11:27:37;100616.25;;;5.79;98.85
28008;BME280;15333;50.010;20.020;2023-02-13T11:30:39;100621.09;;;5.63;99.54
28008;BME280;15333;50.010;20.020;2023-02-13T11:33:41;100618.16;;;5.75;99.94
28008;BME280;15333;50.010;20.020;2023-02-13T11:36:42;100623.34;;;5.78;99.59
28008;BME280;15333;50.010;20.020;2023-02-13T11:39:45;100629.47;;;5.82;97.99
28008;BME280;15333;50.010;20.020;2023-02-13T11:42:49;100625.78;;;5.89;96.81
28008;BME280;15333;50.010;20.020;2023-02-13T11:46:06;100621.38;;;5.86;95.77
28008;BME280;15333;50.010;20.020;2023-02-13T11:49:17;100628.66;;;5.78;95.67
28008;BME280;15333;50.010;20.020;2023-02-13T11:52:25;100619.78;;;5.79;95.03
28008;BME280;15333;50.010;20.020;2023-02-13T11:55:32;100622.47;;;5.78;95.42
28008;BME280;15333;50.010;20.020;2023-02-13T11:58:34;100618.03;;;5.78;95.45
28008;BME280;15333;50.010;20.020;2023-02-13T12:01:35;100616.56;;;5.68;96.31
28008;BME280;15333;50.010;20.020;2023-02-13T12:04:35;100618.22;;;5.72;97.48
28008;BME280;15333;50.010;20.020;2023-02-13T12:07:37;100620.03;;;5.70;97.84
28008;BME280;15333;50.010;20.020;2023-02-13T12:10:38;100612.34;;;5.60;99.02
28008;BME280;15333;50.010;20.020;2023-02-13T12:13:39;100609.72;;;5.58;100.00
28008;BME280;15333;50.010;20.020;2023-02-13T12:16:49;100598.94;;;5.64;100.00
28008;BME280;15333;50.010;20.020;2023-02-13T12:19:52;100590.25;;;5.59;100.00
28008;BME280;15333;50.010;20.020;2023-02-13T12:22:58;100593.41;;;5.73;100.00
28008;BME280;15333;50.010;20.020;2023-02-13T12:29:42;100588.31;;;5.64;100.00
28008;BME280;15333;50.010;20.020;2023-02-13T12:39:40;100584.41;;;5.77;99.03
28008;BME280;15333;50.010;20.020;2023-02-13T12:43:06;100591.41;;;5.81;99.62
28008;BME280;15333;50.010;20.020;2023-02-13T13:03:36;100579.09;;;5.77;97.84
28008;BME280;15333;50.010;20.020;2023-02-13T13:07:22;100573.09;;;5.71;98.47
28008;BME280;15333;50.010;20.020;2023-02-13T13:13:40;100576.66;;;5.70;98.65
28008;BME280;15333;50.010;20.020;2023-02-13T13:17:12;100569.50;;;5.73;99.64
28008;BME280;15333;50.010;20.020;2023-02-13T13:26:54;100571.44;;;5.67;100.00
28008;BME280;15333;50.010;20.020;2023-02-13T13:30:27;100569.38;;;5.76;100.00
28008;BME280;15333;50.010;20.020;2023-02-13T13:33:29;100568.59;;;5.74;100.00
28008;BME280;15333;50.010;20.020;2023-02-13T13:36:50;100556.66;;;5.57;100.00
28008;BME280;15333;50.010;20.020;2023-02-13T13:40:01;100565.84;;;5.45;100.00
28008;BME280;15333;50.010;20.020;2023-02-13T13:43:27;100579.94;;;5.47;100.00
28008;BME280;15333;50.010;20.020;2023-02-13T13:49:42;100578.19;;;5.46;100.00
28008;BME280;15333;50.010;20.020;2023-02-13T13:53:09;100568.59;;;5.40;100.00
28008;BME280;15333;50.010;20.020;2023-02-13T13:56:10;100575.03;;;5.32;100.00
28008;BME280;15333;50.010;20.020;2023-02-13T13:59:16;100573.38;;;5.26;100.00
28008;BME280;15333;50.010;20.020;2023-02-13T14:05:23;100552.88;;;5.33;100.00
28008;BME280;15333;50.010;20.020;2023-02-13T14:08:55;100549.38;;;5.31;100.00
28008;BME280;15333;50.010;20.020;2023-02-13T14:11:56;100553.78;;;5.32;100.00
28008;BME280;15333;50.010;20.020;2023-02-13T14:14:59;100555.72;;;5.25;100.00
28008;BME280;15333;50.010;20.020;2023-02-13T14:21:08;100550.13;;;5.36;100.00
28008;BME280;15333;50.010;20.020;2023-02-13T14:24:10;100535.94;;;5.37;100.00
28008;BME280;15333;50.010;20.020;2023-02-13T14:27:20;100528.72;;;5.42;100.00
28008;BME280;15333;50.010;20.020;2023-02-13T14:30:26;100531.59;;;5.34;100.00
28008;BME280;15333;50.010;20.020;2023-02-13T14:33:29;100536.88;;;5.34;100.00
28008;BME280;15333;50.010;20.020;2023-02-13T14:36:33;100517.50;;;5.32;100.00
28008;BME280;15333;50.010;20.020;2023-02-13T14:39:35;100510.47;;;5.30;100.00
28008;BME280;15333;50.010;20.020;2023-02-13T14:42:36;100522.16;;;5.23;100.00
28008;BME280;15333;50.010;20.020;2023-02-13T14:45:52;100500.31;;;5.11;100.00
28008;BME280;15333;50.010;20.020;2023-02-13T14:52:07;100490.72;;;5.07;100.00
28008;BME280;15333;50.010;20.020;2023-02-13T14:55:40;100501.16;;;5.13;100.00
28008;BME280;15333;50.010;20.020;2023-02-13T15:02:23;100497.66;;;5.11;100.00
28008;BME280;15333;50.010;20.020;2023-02-13T15:05:32;100488.75;;;5.16;100.00
28008;BME280;15333;50.010;20.020;2023-02-13T15:08:38;100495.09;;;5.10;100.00
28008;BME280;15333;50.010;20.020;2023-02-13T15:11:43;100488.75;;;5.16;100.00
28008;BME280;15333;50.010;20.020;2023-02-13T15:14:44;100472.81;;;5.16;100.00
28008;BME280;15333;50.010;20.020;2023-02-13T15:17:45;100466.66;;;5.13;100.00
28008;BME280;15333;50.010;20.020;2023-02-13T15:20:46;100477.47;;;5.06;100.00
28008;BME280;15333;50.010;20.020;2023-02-13T15:23:49;100481.91;;;5.05;100.00
28008;BME280;15333;50.010;20.020;2023-02-13T15:26:55;100478.53;;;5.00;100.00
28008;BME280;15333;50.010;20.020;2023-02-13T15:30:21;100471.47;;;4.99;100.00
28008;BME280;15333;50.010;20.020;2023-02-13T15:33:23;100478.69;;;4.94;100.00
28008;BME280;15333;50.010;20.020;2023-02-13T15:36:32;100489.28;;;4.94;100.00
28008;BME280;15333;50.010;20.020;2023-02-13T15:39:33;100486.00;;;4.85;100.00
28008;BME280;15333;50.010;20.020;2023-02-13T15:42:36;100491.44;;;4.80;100.00
28008;BME280;15333;50.010;20.020;2023-02-13T15:45:41;100500.28;;;4.79;100.00
28008;BME280;15333;50.010;20.020;2023-02-13T15:48:43;100500.34;;;4.76;100.00
28008;BME280;15333;50.010;20.020;2023-02-13T15:51:46;100510.16;;;4.74;100.00
28008;BME280;15333;50.010;20.020;2023-02-13T15:54:50;100501.53;;;4.64;100.00
28008;BME280;15333;50.010;20.020;2023-02-13T15:57:54;100503.47;;;4.58;100.00
28008;BME280;15333;50.010;20.020;2023-02-13T16:01:02;100510.56;;;4.56;100.00
28008;BME280;15333;50.010;20.020;2023-02-13T16:04:06;100509.81;;;4.51;100.00
28008;BME280;15333;50.010;20.020;2023-02-13T16:07:11;100499.25;;;4.49;100.00
28008;BME280;15333;50.010;20.020;2023-02-13T16:10:25;100513.38;;;4.50;100.00
28008;BME280;15333;50.010;20.020;2023-02-13T16:13:26;100508.06;;;4.50;100.00
28008;BME280;15333;50.010;20.020;2023-02-13T16:16:31;100508.97;;;4.49;100.00
28008;BME280;15333;50.010;20.020;2023-02-13T16:19:50;100515.06;;;4.54;100.00
28008;BME280;15333;50.010;20.020;2023-02-13T16:26:06;100520.47;;;4.48;100.00
28008;BME280;15333;50.010;20.020;2023-02-13T16:29:19;100518.75;;;4.47;100.00
28008;BME280;15333;50.010;20.020;2023-02-13T16:32:26;100516.09;;;4.47;100.00
28008;BME280;15333;50.010;20.020;2023-02-13T16:35:30;100526.66;;;4.48;100.00
28008;BME280;15333;50.010;20.020;2023-02-13T16:38:53;100530.28;;;4.46;100.00
28008;BME280;15333;50.010;20.020;2023-02-13T16:41:55;100527.63;;;4.46;100.00
28008;BME280;15333;50.010;20.020;2023-02-13T16:45:22;100533.06;;;4.40;100.00
28008;BME280;15333;50.010;20.020;2023-02-13T16:48:23;100543.66;;;4.40;100.00
28008;BME280;15333;50.010;20.020;2023-02-13T16:57:46;100535.38;;;4.13;100.00
28008;BME280;15333;50.010;20.020;2023-02-13T17:00:49;100512.53;;;4.09;100.00
28008;BME280;15333;50.010;20.020;2023-02-13T17:03:52;100495.91;;;4.03;100.00
28008;BME280;15333;50.010;20.020;2023-02-13T17:06:54;100510.06;;;4.00;100.00
28008;BME280;15333;50.010;20.020;2023-02-13T17:09:57;100505.91;;;3.90;100.00
28008;BME280;15333;50.010;20.020;2023-02-13T17:13:02;100513.00;;;3.88;100.00
28008;BME280;15333;50.010;20.020;2023-02-13T17:16:13;100509.56;;;3.83;100.00
28008;BME280;15333;50.010;20.020;2023-02-13T17:19:14;100502.56;;;3.79;100.00
28008;BME280;15333;50.010;20.020;2023-02-13T17:22:19;100496.44;;;3.77;100.00
28008;BME280;15333;50.010;20.020;2023-02-13T17:25:47;100498.41;;;3.67;100.00
28008;BME280;15333;50.010;20.020;2023-02-13T17:28:49;100505.50;;;3.65;100.00
28008;BME280;15333;50.010;20.020;2023-02-13T17:31:53;100499.94;;;3.77;100.00
28008;BME280;15333;50.010;20.020;2023-02-13T17:34:55;100493.78;;;3.77;100.00
28008;BME280;15333;50.010;20.020;2023-02-13T17:37:56;100493.72;;;3.80;100.00
28008;BME280;15333;50.010;20.020;2023-02-13T17:40:57;100499.94;;;3.79;100.00
28008;BME280;15333;50.010;20.020;2023-02-13T17:43:59;100495.53;;;3.78;100.00
28008;BME280;15333;50.010;20.020;2023-02-13T17:46:59;100505.22;;;3.79;100.00
28008;BME280;15333;50.010;20.020;2023-02-13T17:50:00;100511.38;;;3.81;100.00
28008;BME280;15333;50.010;20.020;2023-02-13T17:53:07;100512.25;;;3.81;100.00
28008;BME280;15333;50.010;20.020;2023-02-13T17:56:08;100506.06;;;3.81;100.00
28008;BME280;15333;50.010;20.020;2023-02-13T17:59:09;100508.75;;;3.79;100.00